CheckWX is a tool to help pilots better visualize weather data.  It is not intended as a substitute for an official pre-flight weather briefing.

04:36:14 UTC

EGUN METAR
RAF Mildenhall Airport
Mildenhall, United Kingdom
Current

40 mins ago

EGUN 270356Z 04006KT 9999 OVC014 12/12 A3044 RMK AO2A SLP311 T01200120 .
Observed
Jun-27 @ 03:56 UTC
Wind
  • 040° at 6 KTS
Visibility
10,000+ meters
Flight Rules
MVFR
Cloud Levels
  • Overcast at 1,400' AGL
Temperature
12°C / 54°F
Dewpoint
12°C / 54°F
Humidity
100%
Altimeter
30.44" Hg
Pressure
1030.82 hPa
Previous

60 mins ago

EGUN 270336Z 05009KT 9999 OVC014 12/12 A3043 RMK AO2A SLP308 $
Observed
Jun-27 @ 03:36 UTC
Wind
  • 050° at 9 KTS
Visibility
10,000+ meters
Flight Rules
MVFR
Cloud Levels
  • Overcast at 1,400' AGL
Temperature
12°C / 54°F
Dewpoint
12°C / 54°F
Humidity
100%
Altimeter
30.43" Hg
Pressure
1030.52 hPa
Previous

2 hours ago

EGUN 270256Z 05006KT 9999 BKN015 12/12 A3043 RMK AO2A SLPNO T01210121 .
Observed
Jun-27 @ 02:56 UTC
Wind
  • 050° at 6 KTS
Visibility
10,000+ meters
Flight Rules
MVFR
Cloud Levels
  • Broken at 1,500' AGL
Temperature
12°C / 54°F
Dewpoint
12°C / 54°F
Humidity
100%
Altimeter
30.43" Hg
Pressure
1030.52 hPa